Time;durP1;ratioP1;P1;durP2;ratioP2;P2;SDS_P1;SDS_P2;PMS_P1;PMS_P2;Temp;Humidity;BMP_temperature;BMP_pressure;BME280_temperature;BME280_humidity;BME280_pressure;Samples;Min_cycle;Max_cycle;Signal;HPM_P1;HPM_P2
2023/12/21 00:02:15;;;;;;;20.83;3.58;;;;;;;;;;5084272;28;20032;-75
2023/12/21 00:04:41;;;;;;;19.83;4.10;;;;;;;;;;5094254;28;20131;-76
2023/12/21 00:07:07;;;;;;;24.17;4.22;;;;;;;;;;5075902;28;20055;-75
2023/12/21 00:09:33;;;;;;;17.35;3.80;;;;;;;;;;5094369;28;20036;-74
2023/12/21 00:11:59;;;;;;;17.77;4.13;;;;;;;;;;5093896;28;20485;-75
2023/12/21 00:14:29;;;;;;;15.65;3.47;;;;;;;;;;5093861;28;20436;-76
2023/12/21 00:16:56;;;;;;;16.92;3.80;;;;;;;;;;5077206;28;20048;-75
2023/12/21 00:19:22;;;;;;;19.65;3.83;;;;;;;;;;5066382;28;20067;-75
2023/12/21 00:21:48;;;;;;;18.60;4.00;;;;;;;;;;5083301;28;20040;-75
2023/12/21 00:24:14;;;;;;;16.40;3.97;;;;;;;;;;5064793;28;20531;-75
2023/12/21 00:26:40;;;;;;;19.67;4.32;;;;;;;;;;5085262;28;20043;-76
2023/12/21 00:29:07;;;;;;;15.98;3.40;;;;;;;;;;5091824;28;20090;-76
2023/12/21 00:31:33;;;;;;;19.58;4.40;;;;;;;;;;5080033;28;20040;-75
2023/12/21 00:33:59;;;;;;;20.23;3.78;;;;;;;;;;5076963;28;20167;-75
2023/12/21 00:36:25;;;;;;;22.95;4.45;;;;;;;;;;5083891;28;20039;-75
2023/12/21 00:38:51;;;;;;;18.20;3.55;;;;;;;;;;5074977;28;20051;-75
2023/12/21 00:41:17;;;;;;;20.23;4.13;;;;;;;;;;5092960;28;20043;-75
2023/12/21 00:43:43;;;;;;;20.25;4.30;;;;;;;;;;5089429;28;20052;-75
2023/12/21 00:46:09;;;;;;;21.52;3.97;;;;;;;;;;5073577;28;20044;-75
2023/12/21 00:48:36;;;;;;;24.52;5.05;;;;;;;;;;5077970;28;20083;-75
2023/12/21 00:51:02;;;;;;;19.83;4.38;;;;;;;;;;5081916;28;20090;-75
2023/12/21 00:53:28;;;;;;;19.30;3.97;;;;;;;;;;5084994;28;20044;-75
2023/12/21 00:55:54;;;;;;;21.25;4.53;;;;;;;;;;5083477;28;20048;-76
2023/12/21 00:58:20;;;;;;;20.45;4.60;;;;;;;;;;5090411;28;20420;-75
2023/12/21 01:00:46;;;;;;;21.95;4.55;;;;;;;;;;5092230;28;20039;-75
2023/12/21 01:03:12;;;;;;;18.45;4.10;;;;;;;;;;5091714;28;20054;-75
2023/12/21 01:05:38;;;;;;;17.33;3.80;;;;;;;;;;5073792;28;20047;-76
2023/12/21 01:08:04;;;;;;;16.55;4.30;;;;;;;;;;5078468;28;20082;-75
2023/12/21 01:10:31;;;;;;;23.15;4.35;;;;;;;;;;5091765;28;20036;-75
2023/12/21 01:12:58;;;;;;;21.20;4.55;;;;;;;;;;5088121;28;20051;-75
2023/12/21 01:15:24;;;;;;;19.33;3.90;;;;;;;;;;5082712;28;20529;-76
2023/12/21 01:17:51;;;;;;;23.15;3.75;;;;;;;;;;5055403;28;20106;-76
2023/12/21 01:20:17;;;;;;;19.38;3.90;;;;;;;;;;5088728;28;20044;-75
2023/12/21 01:22:43;;;;;;;19.65;3.92;;;;;;;;;;5061073;28;20058;-76
2023/12/21 01:25:09;;;;;;;21.00;3.90;;;;;;;;;;5079684;28;20036;-75
2023/12/21 01:27:35;;;;;;;20.13;4.30;;;;;;;;;;5091662;28;20059;-75
2023/12/21 01:30:05;;;;;;;20.58;4.10;;;;;;;;;;5070813;28;20056;-75
2023/12/21 01:32:31;;;;;;;21.50;4.05;;;;;;;;;;5085971;28;20048;-75
2023/12/21 01:34:57;;;;;;;17.40;3.97;;;;;;;;;;5072361;28;20543;-75
2023/12/21 01:37:23;;;;;;;18.20;4.07;;;;;;;;;;5081288;28;20047;-76
2023/12/21 01:39:49;;;;;;;22.88;4.38;;;;;;;;;;5091703;28;20512;-75
2023/12/21 01:42:15;;;;;;;22.15;3.85;;;;;;;;;;5075224;28;20375;-76
2023/12/21 01:44:41;;;;;;;19.65;4.28;;;;;;;;;;5089826;28;20462;-76
2023/12/21 01:47:07;;;;;;;21.65;4.40;;;;;;;;;;5092053;28;20047;-75
2023/12/21 01:49:33;;;;;;;29.30;4.65;;;;;;;;;;5090889;28;20089;-76
2023/12/21 01:52:00;;;;;;;22.55;3.90;;;;;;;;;;5091327;28;20048;-76
2023/12/21 01:54:26;;;;;;;20.30;4.20;;;;;;;;;;5089989;28;20097;-75
2023/12/21 01:56:52;;;;;;;18.08;3.67;;;;;;;;;;5092123;28;20594;-75
2023/12/21 01:59:18;;;;;;;16.90;3.90;;;;;;;;;;5088270;28;20412;-76
2023/12/21 02:01:44;;;;;;;19.88;3.63;;;;;;;;;;5091947;28;20455;-75
2023/12/21 02:04:11;;;;;;;20.45;4.45;;;;;;;;;;5086655;28;20135;-76
2023/12/21 02:06:37;;;;;;;22.08;4.28;;;;;;;;;;5091917;28;20062;-76
2023/12/21 02:09:03;;;;;;;18.38;3.83;;;;;;;;;;5094970;28;20044;-76
2023/12/21 02:11:29;;;;;;;17.33;3.95;;;;;;;;;;5077958;28;20062;-76
2023/12/21 02:13:55;;;;;;;23.80;4.32;;;;;;;;;;5067256;28;20087;-74
2023/12/21 02:16:28;;;;;;;18.48;4.15;;;;;;;;;;5096994;28;20056;-75
2023/12/21 02:18:54;;;;;;;16.60;3.95;;;;;;;;;;5096210;28;20073;-75
2023/12/21 02:21:22;;;;;;;16.45;4.10;;;;;;;;;;5086552;28;20067;-75
2023/12/21 02:23:49;;;;;;;22.30;4.63;;;;;;;;;;5086478;28;20044;-76
2023/12/21 02:26:18;;;;;;;25.83;4.72;;;;;;;;;;5078037;28;20048;-75
2023/12/21 02:28:44;;;;;;;22.90;4.80;;;;;;;;;;5088218;28;20520;-75
2023/12/21 02:31:10;;;;;;;18.30;4.70;;;;;;;;;;5094099;28;20397;-75
2023/12/21 02:33:36;;;;;;;18.15;4.30;;;;;;;;;;5073844;28;20072;-76
2023/12/21 02:36:03;;;;;;;18.30;4.40;;;;;;;;;;5075992;28;20079;-75
2023/12/21 02:38:29;;;;;;;17.58;4.85;;;;;;;;;;5075644;28;20059;-75
2023/12/21 02:40:55;;;;;;;23.73;4.30;;;;;;;;;;5084245;28;20398;-75
2023/12/21 02:43:21;;;;;;;20.23;3.88;;;;;;;;;;5082920;28;20076;-74
2023/12/21 02:45:47;;;;;;;19.05;4.22;;;;;;;;;;5071419;28;20090;-75
2023/12/21 02:48:13;;;;;;;21.90;4.07;;;;;;;;;;5086602;28;20046;-75
2023/12/21 02:50:39;;;;;;;18.17;4.00;;;;;;;;;;5088926;28;20489;-75
2023/12/21 02:53:05;;;;;;;17.27;4.22;;;;;;;;;;5090791;28;20443;-75
2023/12/21 02:55:31;;;;;;;22.45;4.22;;;;;;;;;;5089484;28;20040;-75
2023/12/21 02:57:57;;;;;;;19.27;4.22;;;;;;;;;;5088323;28;20040;-75
2023/12/21 03:00:23;;;;;;;22.65;4.60;;;;;;;;;;5083577;28;20390;-75
2023/12/21 03:02:49;;;;;;;16.00;3.95;;;;;;;;;;5090685;28;20047;-75
2023/12/21 03:05:15;;;;;;;16.85;3.92;;;;;;;;;;5094584;28;20051;-75
2023/12/21 03:07:41;;;;;;;16.38;3.85;;;;;;;;;;5094840;28;20052;-75
2023/12/21 03:10:07;;;;;;;16.52;3.90;;;;;;;;;;5093397;28;20177;-75
2023/12/21 03:12:33;;;;;;;18.58;4.38;;;;;;;;;;5090905;28;20043;-75
2023/12/21 03:14:59;;;;;;;19.73;4.20;;;;;;;;;;5093581;28;20052;-75
2023/12/21 03:17:25;;;;;;;15.95;3.65;;;;;;;;;;5075119;28;20045;-75
2023/12/21 03:19:51;;;;;;;12.93;3.47;;;;;;;;;;5086188;28;20051;-75
2023/12/21 03:22:17;;;;;;;18.52;4.38;;;;;;;;;;5076347;28;20036;-75
2023/12/21 03:24:45;;;;;;;15.77;4.40;;;;;;;;;;5089455;28;20441;-75
2023/12/21 03:27:12;;;;;;;12.68;3.50;;;;;;;;;;5050160;28;20075;-75
2023/12/21 03:29:38;;;;;;;17.05;4.30;;;;;;;;;;5074538;28;20054;-75
2023/12/21 03:32:04;;;;;;;19.13;3.72;;;;;;;;;;5079324;28;20119;-75
2023/12/21 03:34:30;;;;;;;16.88;4.15;;;;;;;;;;5084666;28;20075;-75
2023/12/21 03:36:56;;;;;;;15.32;4.13;;;;;;;;;;5086238;28;20041;-75
2023/12/21 03:39:22;;;;;;;12.35;3.90;;;;;;;;;;5093354;28;20123;-75
2023/12/21 03:41:48;;;;;;;13.93;3.45;;;;;;;;;;5094883;28;20431;-75
2023/12/21 03:44:14;;;;;;;10.00;3.22;;;;;;;;;;5075653;28;20048;-75
2023/12/21 03:46:40;;;;;;;12.10;3.38;;;;;;;;;;5074403;28;20048;-75
2023/12/21 03:49:06;;;;;;;11.88;3.08;;;;;;;;;;5074404;28;20037;-75
2023/12/21 03:51:32;;;;;;;8.88;2.90;;;;;;;;;;5075821;28;20044;-75
2023/12/21 03:53:58;;;;;;;12.23;3.60;;;;;;;;;;5074410;28;20536;-75
2023/12/21 03:56:24;;;;;;;7.97;2.58;;;;;;;;;;5091002;28;20075;-75
2023/12/21 03:58:50;;;;;;;12.40;2.95;;;;;;;;;;5078714;28;20414;-75
2023/12/21 04:01:26;;;;;;;10.07;2.28;;;;;;;;;;5090927;28;20051;-75
2023/12/21 04:03:52;;;;;;;8.15;2.05;;;;;;;;;;5087441;28;20055;-75
2023/12/21 04:06:18;;;;;;;12.18;2.55;;;;;;;;;;5077177;28;20052;-75
2023/12/21 04:08:44;;;;;;;9.63;2.22;;;;;;;;;;5074197;28;20049;-75
2023/12/21 04:11:10;;;;;;;6.03;1.83;;;;;;;;;;5075935;28;20501;-75
2023/12/21 04:13:37;;;;;;;5.40;1.95;;;;;;;;;;5094294;28;20071;-75
2023/12/21 04:16:03;;;;;;;7.15;2.00;;;;;;;;;;5092993;28;20082;-75
2023/12/21 04:18:30;;;;;;;9.43;2.10;;;;;;;;;;5076879;28;20044;-75
2023/12/21 04:20:57;;;;;;;10.93;2.42;;;;;;;;;;5080295;28;20098;-75
2023/12/21 04:23:24;;;;;;;8.30;2.60;;;;;;;;;;5082705;28;20054;-75
2023/12/21 04:25:50;;;;;;;9.55;2.53;;;;;;;;;;5089354;28;20044;-75
2023/12/21 04:28:16;;;;;;;8.38;2.67;;;;;;;;;;5078320;28;20055;-75
2023/12/21 04:30:42;;;;;;;9.98;2.85;;;;;;;;;;5076514;28;20036;-75
2023/12/21 04:33:11;;;;;;;8.55;2.78;;;;;;;;;;5085327;28;20048;-75
2023/12/21 04:35:37;;;;;;;9.75;3.20;;;;;;;;;;5061149;28;20040;-75
2023/12/21 04:38:03;;;;;;;8.18;2.70;;;;;;;;;;5092186;28;20032;-75
2023/12/21 04:40:29;;;;;;;10.77;3.15;;;;;;;;;;5071893;28;20053;-75
2023/12/21 04:42:55;;;;;;;10.05;3.30;;;;;;;;;;5081803;28;20500;-75
2023/12/21 04:45:22;;;;;;;11.40;3.47;;;;;;;;;;5073590;28;20041;-75
2023/12/21 04:47:48;;;;;;;12.32;3.47;;;;;;;;;;5079460;28;20048;-75
2023/12/21 04:50:14;;;;;;;11.65;3.72;;;;;;;;;;5078020;28;20036;-75
2023/12/21 04:52:40;;;;;;;11.60;3.67;;;;;;;;;;5085713;28;20516;-75
2023/12/21 04:55:08;;;;;;;9.68;3.30;;;;;;;;;;5076635;28;20068;-75
2023/12/21 04:57:34;;;;;;;10.63;3.65;;;;;;;;;;5089678;28;20044;-75
2023/12/21 05:00:00;;;;;;;10.98;3.35;;;;;;;;;;5088472;28;20046;-75
2023/12/21 05:02:26;;;;;;;12.10;3.85;;;;;;;;;;5079323;28;20039;-75
2023/12/21 05:04:52;;;;;;;12.88;3.70;;;;;;;;;;5093145;28;20481;-75
2023/12/21 05:07:18;;;;;;;10.95;3.13;;;;;;;;;;5082520;28;20047;-75
2023/12/21 05:09:44;;;;;;;14.02;3.08;;;;;;;;;;5092150;28;20127;-75
2023/12/21 05:12:10;;;;;;;12.65;3.15;;;;;;;;;;5092133;28;20043;-75
2023/12/21 05:14:36;;;;;;;12.98;3.20;;;;;;;;;;5082045;28;20114;-75
2023/12/21 05:17:02;;;;;;;12.90;3.17;;;;;;;;;;5084649;28;20441;-75
2023/12/21 05:19:28;;;;;;;14.35;3.28;;;;;;;;;;5093313;28;20090;-75
2023/12/21 05:21:54;;;;;;;14.10;3.10;;;;;;;;;;5091484;28;20046;-76
2023/12/21 05:24:20;;;;;;;11.45;3.00;;;;;;;;;;5093194;28;20109;-75
2023/12/21 05:26:46;;;;;;;10.32;2.55;;;;;;;;;;5080719;28;20075;-75
2023/12/21 05:29:12;;;;;;;10.68;2.50;;;;;;;;;;5074689;28;20036;-75
2023/12/21 05:31:38;;;;;;;10.80;2.75;;;;;;;;;;5084782;28;20078;-75
2023/12/21 05:34:04;;;;;;;7.97;2.30;;;;;;;;;;5072486;28;20394;-75
2023/12/21 05:36:30;;;;;;;8.30;2.25;;;;;;;;;;5072785;28;20101;-75
2023/12/21 05:38:56;;;;;;;10.93;2.33;;;;;;;;;;5086742;28;20086;-75
2023/12/21 05:41:22;;;;;;;9.93;2.60;;;;;;;;;;5085874;28;20040;-75
2023/12/21 05:43:48;;;;;;;11.40;2.30;;;;;;;;;;5077081;28;20048;-75
2023/12/21 05:46:15;;;;;;;10.73;2.58;;;;;;;;;;5084968;28;20401;-75
2023/12/21 05:48:41;;;;;;;9.25;2.58;;;;;;;;;;5096238;28;20062;-75
2023/12/21 05:51:07;;;;;;;10.25;2.70;;;;;;;;;;5092463;28;20052;-75
2023/12/21 05:53:33;;;;;;;8.93;2.65;;;;;;;;;;5076855;28;20043;-75
2023/12/21 05:55:59;;;;;;;9.55;2.63;;;;;;;;;;5081143;28;20079;-75
2023/12/21 05:58:25;;;;;;;12.48;2.53;;;;;;;;;;5085725;28;20036;-75
2023/12/21 06:00:51;;;;;;;9.93;2.67;;;;;;;;;;5094367;28;20056;-75
2023/12/21 06:03:17;;;;;;;7.75;2.55;;;;;;;;;;5080756;28;20375;-75
2023/12/21 06:05:43;;;;;;;7.65;2.13;;;;;;;;;;5089153;28;20096;-75
2023/12/21 06:08:09;;;;;;;13.60;2.70;;;;;;;;;;5093383;28;20048;-75
2023/12/21 06:10:35;;;;;;;9.20;2.60;;;;;;;;;;5094695;28;20516;-75
2023/12/21 06:13:01;;;;;;;13.45;2.40;;;;;;;;;;5077876;28;20040;-75
2023/12/21 06:15:27;;;;;;;13.60;2.28;;;;;;;;;;5094021;28;20083;-75
2023/12/21 06:17:53;;;;;;;11.75;2.53;;;;;;;;;;5057977;28;20056;-75
2023/12/21 06:20:19;;;;;;;9.80;2.13;;;;;;;;;;5076170;28;20044;-75
2023/12/21 06:22:45;;;;;;;12.32;2.53;;;;;;;;;;5092038;28;20485;-75
2023/12/21 06:25:11;;;;;;;11.52;2.30;;;;;;;;;;5075391;28;20048;-75
2023/12/21 06:27:37;;;;;;;13.23;2.33;;;;;;;;;;5083308;28;20048;-75
2023/12/21 06:30:04;;;;;;;14.40;2.55;;;;;;;;;;5087182;28;20043;-76
2023/12/21 06:32:30;;;;;;;12.90;2.22;;;;;;;;;;5082568;28;20043;-75
2023/12/21 06:34:56;;;;;;;12.95;2.95;;;;;;;;;;5083286;28;20517;-75
2023/12/21 06:37:22;;;;;;;11.75;2.45;;;;;;;;;;5081103;28;20047;-75
2023/12/21 06:39:48;;;;;;;12.35;2.70;;;;;;;;;;5082411;28;20044;-75
2023/12/21 06:42:14;;;;;;;13.15;2.70;;;;;;;;;;5090833;28;20047;-75
2023/12/21 06:44:40;;;;;;;13.07;2.85;;;;;;;;;;5093936;28;20072;-75
2023/12/21 06:47:06;;;;;;;11.93;3.50;;;;;;;;;;5091196;28;20064;-76
2023/12/21 06:49:32;;;;;;;13.68;2.92;;;;;;;;;;5080938;28;20072;-75
2023/12/21 06:51:58;;;;;;;12.05;2.42;;;;;;;;;;5086699;28;20528;-75
2023/12/21 06:54:24;;;;;;;11.65;2.85;;;;;;;;;;5074195;28;20087;-75
2023/12/21 06:56:50;;;;;;;11.93;2.60;;;;;;;;;;5086569;28;20036;-75
2023/12/21 06:59:16;;;;;;;12.05;2.40;;;;;;;;;;5093636;28;20481;-75
2023/12/21 07:01:42;;;;;;;6.72;2.20;;;;;;;;;;5092394;28;20052;-75
2023/12/21 07:04:08;;;;;;;10.50;2.70;;;;;;;;;;5081964;28;20474;-75
2023/12/21 07:06:35;;;;;;;14.02;2.75;;;;;;;;;;5088588;28;20489;-75
2023/12/21 07:09:01;;;;;;;9.35;2.17;;;;;;;;;;5092179;28;20044;-75
2023/12/21 07:11:27;;;;;;;10.73;2.35;;;;;;;;;;5072734;28;20044;-75
2023/12/21 07:13:54;;;;;;;9.85;2.30;;;;;;;;;;5084380;28;20036;-75
2023/12/21 07:16:20;;;;;;;8.65;2.22;;;;;;;;;;5075462;28;20053;-75
2023/12/21 07:18:46;;;;;;;10.82;2.72;;;;;;;;;;5075465;28;20078;-75
2023/12/21 07:21:13;;;;;;;11.65;2.63;;;;;;;;;;5075023;28;20056;-75
2023/12/21 07:23:39;;;;;;;6.57;2.08;;;;;;;;;;5082638;28;20048;-75
2023/12/21 07:26:05;;;;;;;10.50;2.10;;;;;;;;;;5088467;28;20165;-75
2023/12/21 07:28:31;;;;;;;8.48;1.83;;;;;;;;;;5095131;28;20094;-75
2023/12/21 07:30:59;;;;;;;9.60;1.77;;;;;;;;;;5075262;28;20458;-75
2023/12/21 07:33:25;;;;;;;8.70;1.67;;;;;;;;;;5089249;28;20044;-75
2023/12/21 07:35:51;;;;;;;6.95;1.70;;;;;;;;;;5092632;28;20123;-75
2023/12/21 07:38:17;;;;;;;8.38;1.30;;;;;;;;;;5079199;28;20082;-75
2023/12/21 07:40:44;;;;;;;7.88;1.33;;;;;;;;;;5083803;28;20093;-75
2023/12/21 07:43:10;;;;;;;7.38;1.50;;;;;;;;;;5081975;28;20398;-75
2023/12/21 07:45:36;;;;;;;6.60;1.23;;;;;;;;;;5093391;28;20055;-75
2023/12/21 07:48:02;;;;;;;5.57;1.10;;;;;;;;;;5084393;28;20040;-75
2023/12/21 07:50:29;;;;;;;4.60;1.00;;;;;;;;;;5086482;28;20040;-75
2023/12/21 07:52:56;;;;;;;5.68;1.20;;;;;;;;;;5077871;28;20367;-75
2023/12/21 07:55:25;;;;;;;5.85;1.17;;;;;;;;;;5085047;28;20131;-75
2023/12/21 07:57:51;;;;;;;3.58;0.88;;;;;;;;;;5083981;28;20082;-75
2023/12/21 08:00:17;;;;;;;7.03;1.40;;;;;;;;;;5058866;28;20052;-75
2023/12/21 08:02:46;;;;;;;6.40;1.20;;;;;;;;;;5078470;28;20447;-75
2023/12/21 08:05:12;;;;;;;7.13;1.30;;;;;;;;;;5091890;28;20068;-75
2023/12/21 08:07:39;;;;;;;6.82;1.08;;;;;;;;;;5084467;28;20055;-75
2023/12/21 08:10:06;;;;;;;8.15;1.05;;;;;;;;;;5087486;28;20067;-75
2023/12/21 08:12:32;;;;;;;4.45;1.00;;;;;;;;;;5084468;28;20043;-75
2023/12/21 08:14:58;;;;;;;4.07;1.13;;;;;;;;;;5084226;28;20059;-75
2023/12/21 08:17:24;;;;;;;3.83;1.13;;;;;;;;;;5075679;28;20052;-75
2023/12/21 08:19:50;;;;;;;5.05;1.27;;;;;;;;;;5072901;28;20059;-74
2023/12/21 08:22:16;;;;;;;3.88;1.00;;;;;;;;;;5072822;28;20041;-73
2023/12/21 08:24:42;;;;;;;4.38;1.20;;;;;;;;;;5072723;28;20151;-74
2023/12/21 08:27:08;;;;;;;5.40;1.20;;;;;;;;;;5080082;28;20040;-74
2023/12/21 08:29:34;;;;;;;5.30;1.00;;;;;;;;;;5078130;28;20385;-74
2023/12/21 08:32:01;;;;;;;5.07;1.10;;;;;;;;;;5092008;28;20523;-75
2023/12/21 08:34:27;;;;;;;4.63;0.90;;;;;;;;;;5079215;28;20084;-75
2023/12/21 08:36:53;;;;;;;3.00;0.90;;;;;;;;;;5092804;28;20044;-75
2023/12/21 08:39:19;;;;;;;2.60;0.73;;;;;;;;;;5093803;28;20395;-75
2023/12/21 08:41:45;;;;;;;3.25;0.80;;;;;;;;;;5093334;28;20401;-75
2023/12/21 08:44:11;;;;;;;4.60;0.80;;;;;;;;;;5092737;28;20036;-75
2023/12/21 08:46:42;;;;;;;2.30;0.60;;;;;;;;;;5074888;28;20059;-75
2023/12/21 08:49:08;;;;;;;3.28;0.70;;;;;;;;;;5092991;28;20071;-75
2023/12/21 08:51:34;;;;;;;3.00;0.80;;;;;;;;;;5083347;28;20052;-75
2023/12/21 08:54:00;;;;;;;3.17;0.60;;;;;;;;;;5085530;28;20124;-75
2023/12/21 08:56:26;;;;;;;3.22;0.70;;;;;;;;;;5072455;28;20044;-75
2023/12/21 08:58:52;;;;;;;3.30;0.90;;;;;;;;;;5077707;28;20198;-75
2023/12/21 09:01:19;;;;;;;3.85;0.70;;;;;;;;;;5088485;28;20044;-75
2023/12/21 09:03:45;;;;;;;2.83;0.57;;;;;;;;;;5087484;28;20074;-75
2023/12/21 09:06:11;;;;;;;4.90;0.85;;;;;;;;;;5089688;28;20405;-75
2023/12/21 09:08:37;;;;;;;4.38;0.82;;;;;;;;;;5092616;28;20486;-74
2023/12/21 09:11:04;;;;;;;3.90;1.00;;;;;;;;;;5092704;28;20044;-75
2023/12/21 09:13:30;;;;;;;3.88;0.77;;;;;;;;;;5074341;28;20044;-75
2023/12/21 09:15:56;;;;;;;5.20;1.00;;;;;;;;;;5091860;28;20516;-75
2023/12/21 09:18:22;;;;;;;5.97;1.10;;;;;;;;;;5091360;28;20048;-74
2023/12/21 09:20:48;;;;;;;3.70;0.90;;;;;;;;;;5090050;28;20052;-75
2023/12/21 09:23:14;;;;;;;6.00;1.25;;;;;;;;;;5092465;28;20389;-75
2023/12/21 09:25:40;;;;;;;9.30;1.50;;;;;;;;;;5092511;28;20052;-75
2023/12/21 09:28:06;;;;;;;8.27;1.23;;;;;;;;;;5082963;28;20055;-75
2023/12/21 09:30:33;;;;;;;8.95;1.63;;;;;;;;;;5071853;28;20454;-75
2023/12/21 09:33:02;;;;;;;5.20;1.15;;;;;;;;;;5072668;28;20390;-75
2023/12/21 09:35:28;;;;;;;7.07;1.30;;;;;;;;;;5091264;28;20040;-75
2023/12/21 09:37:55;;;;;;;7.18;1.35;;;;;;;;;;5093051;28;20089;-75
2023/12/21 09:40:24;;;;;;;7.07;1.38;;;;;;;;;;5074401;28;20091;-75
2023/12/21 09:42:51;;;;;;;10.85;1.65;;;;;;;;;;5089097;28;20126;-75
2023/12/21 09:45:18;;;;;;;7.88;1.50;;;;;;;;;;5087847;28;20048;-75
2023/12/21 09:47:45;;;;;;;10.00;1.15;;;;;;;;;;5091936;28;20084;-74
2023/12/21 09:50:12;;;;;;;9.13;1.50;;;;;;;;;;5092343;28;20485;-75
2023/12/21 09:52:38;;;;;;;5.40;0.90;;;;;;;;;;5092134;28;20461;-75
2023/12/21 09:55:05;;;;;;;8.52;1.40;;;;;;;;;;5089744;28;20095;-75
2023/12/21 09:57:32;;;;;;;8.50;1.35;;;;;;;;;;5076098;28;20048;-75
2023/12/21 09:59:59;;;;;;;7.80;1.00;;;;;;;;;;5071989;28;20043;-74
2023/12/21 10:02:30;;;;;;;7.47;1.40;;;;;;;;;;5072985;28;20048;-75
2023/12/21 10:04:56;;;;;;;9.77;1.60;;;;;;;;;;5053968;28;20150;-75
2023/12/21 10:07:23;;;;;;;9.63;1.55;;;;;;;;;;5054098;28;20052;-75
2023/12/21 10:09:49;;;;;;;8.90;1.23;;;;;;;;;;5088798;28;20048;-75
2023/12/21 10:12:15;;;;;;;9.95;1.65;;;;;;;;;;5091885;28;20044;-75
2023/12/21 10:14:43;;;;;;;12.27;1.60;;;;;;;;;;5091910;28;20067;-75
2023/12/21 10:17:13;;;;;;;11.60;1.63;;;;;;;;;;5090951;28;20469;-75
2023/12/21 10:19:44;;;;;;;13.00;2.10;;;;;;;;;;5073264;28;20148;-75
2023/12/21 10:22:10;;;;;;;10.23;1.70;;;;;;;;;;5091866;28;20370;-75
2023/12/21 10:24:37;;;;;;;13.18;1.92;;;;;;;;;;5081075;28;20101;-75
2023/12/21 10:27:03;;;;;;;16.52;2.30;;;;;;;;;;5072092;28;20040;-75
2023/12/21 10:29:30;;;;;;;13.40;2.45;;;;;;;;;;5073814;28;20353;-76
2023/12/21 10:31:56;;;;;;;17.60;2.00;;;;;;;;;;5078345;28;20045;-75
2023/12/21 10:34:23;;;;;;;12.48;1.77;;;;;;;;;;5079245;28;20056;-75
2023/12/21 10:36:49;;;;;;;10.93;2.08;;;;;;;;;;5090848;28;20044;-75
2023/12/21 10:39:15;;;;;;;11.82;2.15;;;;;;;;;;5080204;28;20048;-75
2023/12/21 10:41:43;;;;;;;18.35;2.33;;;;;;;;;;5075192;28;20055;-75
2023/12/21 10:44:09;;;;;;;12.63;2.40;;;;;;;;;;5075141;28;20131;-75
2023/12/21 10:46:38;;;;;;;10.38;2.42;;;;;;;;;;5075315;28;20056;-75
2023/12/21 10:49:06;;;;;;;15.32;2.67;;;;;;;;;;5074938;28;20058;-75
2023/12/21 10:51:35;;;;;;;10.15;1.73;;;;;;;;;;5075054;28;20051;-75
2023/12/21 10:54:02;;;;;;;13.93;2.30;;;;;;;;;;5058225;28;20045;-75
2023/12/21 10:56:28;;;;;;;16.30;2.65;;;;;;;;;;5088248;28;20048;-75
2023/12/21 10:58:56;;;;;;;12.07;2.40;;;;;;;;;;5084511;28;20045;-75
2023/12/21 11:01:24;;;;;;;13.98;2.20;;;;;;;;;;5092017;28;20044;-75
2023/12/21 11:03:50;;;;;;;15.27;2.67;;;;;;;;;;5093906;28;20487;-75
2023/12/21 11:06:16;;;;;;;15.65;2.70;;;;;;;;;;5088863;28;20040;-75
2023/12/21 11:08:44;;;;;;;17.02;2.65;;;;;;;;;;5076306;28;20052;-75
2023/12/21 11:11:12;;;;;;;15.60;2.67;;;;;;;;;;5066015;28;20052;-75
2023/12/21 11:13:44;;;;;;;23.92;3.40;;;;;;;;;;5080921;28;20046;-75
2023/12/21 11:16:11;;;;;;;15.68;2.42;;;;;;;;;;5081947;28;20097;-75
2023/12/21 11:18:38;;;;;;;18.25;3.53;;;;;;;;;;5079828;28;20048;-75
2023/12/21 11:21:04;;;;;;;17.75;2.75;;;;;;;;;;5094685;28;20044;-75
2023/12/21 11:23:32;;;;;;;13.32;2.63;;;;;;;;;;5085311;28;20420;-75
2023/12/21 11:25:59;;;;;;;18.20;3.08;;;;;;;;;;5075972;28;20423;-75
2023/12/21 11:28:31;;;;;;;14.55;2.22;;;;;;;;;;5075097;28;20222;-75
2023/12/21 11:30:57;;;;;;;18.92;2.63;;;;;;;;;;5056987;28;20497;-75
2023/12/21 11:33:30;;;;;;;15.80;2.65;;;;;;;;;;5074429;28;20496;-75
2023/12/21 11:35:59;;;;;;;16.98;2.67;;;;;;;;;;5084387;28;20048;-75
2023/12/21 11:38:40;;;;;;;20.27;3.30;;;;;;;;;;5082022;28;20482;-75
2023/12/21 11:41:07;;;;;;;19.08;2.58;;;;;;;;;;5074869;28;20056;-75
2023/12/21 11:43:34;;;;;;;20.27;3.20;;;;;;;;;;5092349;28;20032;-75
2023/12/21 11:46:00;;;;;;;14.90;2.47;;;;;;;;;;5093915;28;20059;-75
2023/12/21 11:48:26;;;;;;;19.80;3.00;;;;;;;;;;5075996;28;20051;-75
2023/12/21 11:51:00;;;;;;;18.88;3.10;;;;;;;;;;5075002;28;20127;-75
2023/12/21 11:53:28;;;;;;;18.60;3.05;;;;;;;;;;5092112;28;20486;-75
2023/12/21 11:55:54;;;;;;;20.63;3.22;;;;;;;;;;5090432;28;20048;-75
2023/12/21 11:58:22;;;;;;;17.63;3.15;;;;;;;;;;5090538;28;20044;-75
2023/12/21 12:00:51;;;;;;;18.50;2.67;;;;;;;;;;5093150;28;20054;-75
2023/12/21 12:03:18;;;;;;;20.33;3.13;;;;;;;;;;5081048;28;20044;-75
2023/12/21 12:05:44;;;;;;;20.98;3.33;;;;;;;;;;5091967;28;20466;-75
2023/12/21 12:08:11;;;;;;;19.55;3.25;;;;;;;;;;5092229;28;20048;-75
2023/12/21 12:10:37;;;;;;;20.55;3.42;;;;;;;;;;5076005;28;20101;-75
2023/12/21 12:13:03;;;;;;;22.38;3.70;;;;;;;;;;5074301;28;20052;-75
2023/12/21 12:15:31;;;;;;;20.92;3.00;;;;;;;;;;5073343;28;20052;-75
2023/12/21 12:17:57;;;;;;;15.23;3.05;;;;;;;;;;5055107;28;20509;-75
2023/12/21 12:20:23;;;;;;;19.80;3.33;;;;;;;;;;5079701;28;20044;-75
2023/12/21 12:22:53;;;;;;;20.77;3.45;;;;;;;;;;5078917;28;20040;-74
2023/12/21 12:25:19;;;;;;;20.80;3.72;;;;;;;;;;5075124;28;20115;-74
2023/12/21 12:27:46;;;;;;;13.27;2.67;;;;;;;;;;5074300;28;20089;-75
2023/12/21 12:30:13;;;;;;;21.45;3.17;;;;;;;;;;5079198;28;20489;-75
2023/12/21 12:32:39;;;;;;;14.13;2.60;;;;;;;;;;5074091;28;20505;-75
2023/12/21 12:35:07;;;;;;;21.35;3.30;;;;;;;;;;5087623;28;20041;-75
2023/12/21 12:37:35;;;;;;;18.20;3.10;;;;;;;;;;5076073;28;20071;-75
2023/12/21 12:40:04;;;;;;;18.90;3.22;;;;;;;;;;5080609;28;20434;-75
2023/12/21 12:42:30;;;;;;;20.60;3.53;;;;;;;;;;5088484;28;20063;-75
2023/12/21 12:44:56;;;;;;;19.35;3.45;;;;;;;;;;5072985;28;20075;-75
2023/12/21 12:47:22;;;;;;;23.90;3.97;;;;;;;;;;5038645;28;20120;-75
2023/12/21 12:49:48;;;;;;;24.08;3.67;;;;;;;;;;5072758;28;20599;-75
2023/12/21 12:52:18;;;;;;;23.73;3.90;;;;;;;;;;5090740;28;20068;-75
2023/12/21 12:54:48;;;;;;;21.95;4.07;;;;;;;;;;5074062;28;20493;-75
2023/12/21 12:57:16;;;;;;;23.05;3.42;;;;;;;;;;5090264;28;20039;-75
2023/12/21 12:59:43;;;;;;;22.38;3.65;;;;;;;;;;5084796;28;20055;-75
2023/12/21 13:02:09;;;;;;;19.40;3.70;;;;;;;;;;5085896;28;20060;-75
2023/12/21 13:04:35;;;;;;;20.63;3.72;;;;;;;;;;5077644;28;20155;-75
2023/12/21 13:07:01;;;;;;;16.55;2.97;;;;;;;;;;5072598;28;20040;-75
2023/12/21 13:09:30;;;;;;;24.30;3.70;;;;;;;;;;5072641;28;20041;-75
2023/12/21 13:11:56;;;;;;;24.40;4.13;;;;;;;;;;5082651;28;20052;-75
2023/12/21 13:14:22;;;;;;;21.33;3.53;;;;;;;;;;5088795;28;20097;-75
2023/12/21 13:16:48;;;;;;;21.77;3.63;;;;;;;;;;5086815;28;20048;-74
2023/12/21 13:19:15;;;;;;;27.45;4.38;;;;;;;;;;5085643;28;20049;-75
2023/12/21 13:21:43;;;;;;;24.90;4.10;;;;;;;;;;5072148;28;20051;-75
2023/12/21 13:24:09;;;;;;;18.30;3.60;;;;;;;;;;5077020;28;20051;-75
2023/12/21 13:26:35;;;;;;;17.77;3.63;;;;;;;;;;5083942;28;20044;-75
2023/12/21 13:29:04;;;;;;;21.38;3.90;;;;;;;;;;5089362;28;20066;-75
2023/12/21 13:31:30;;;;;;;18.05;3.00;;;;;;;;;;5075896;28;20061;-75
2023/12/21 13:33:56;;;;;;;11.65;2.20;;;;;;;;;;5083144;28;20448;-75
2023/12/21 13:36:23;;;;;;;14.48;2.45;;;;;;;;;;5085738;28;20056;-75
2023/12/21 13:38:49;;;;;;;11.70;1.95;;;;;;;;;;5084855;28;20055;-75
2023/12/21 13:41:15;;;;;;;14.65;2.58;;;;;;;;;;5085260;28;20063;-75
2023/12/21 13:43:42;;;;;;;13.98;2.17;;;;;;;;;;5074763;28;20045;-74
2023/12/21 13:46:08;;;;;;;15.25;2.47;;;;;;;;;;5075671;28;20181;-75
2023/12/21 13:48:34;;;;;;;10.60;1.80;;;;;;;;;;5092271;28;20123;-75
2023/12/21 13:51:01;;;;;;;16.90;2.72;;;;;;;;;;5076462;28;20078;-75
2023/12/21 13:53:27;;;;;;;14.23;2.30;;;;;;;;;;5072905;28;20040;-74
2023/12/21 13:55:53;;;;;;;14.75;2.42;;;;;;;;;;5071637;28;20048;-75
2023/12/21 13:58:20;;;;;;;20.77;2.95;;;;;;;;;;5080549;28;20052;-75
2023/12/21 14:00:46;;;;;;;19.30;2.88;;;;;;;;;;5079115;28;20498;-75
2023/12/21 14:03:14;;;;;;;26.55;3.30;;;;;;;;;;5071757;28;20056;-75
2023/12/21 14:05:41;;;;;;;20.65;2.92;;;;;;;;;;5077448;28;20177;-75
2023/12/21 14:08:07;;;;;;;22.98;3.35;;;;;;;;;;5079159;28;20406;-75
2023/12/21 14:10:34;;;;;;;23.75;3.17;;;;;;;;;;5080523;28;20049;-75
2023/12/21 14:13:01;;;;;;;20.80;3.90;;;;;;;;;;5091719;28;20048;-75
2023/12/21 14:15:27;;;;;;;26.77;4.63;;;;;;;;;;5083091;28;20143;-75
2023/12/21 14:17:54;;;;;;;24.77;4.72;;;;;;;;;;5085443;28;20469;-75
2023/12/21 14:20:22;;;;;;;26.95;4.68;;;;;;;;;;5084395;28;20044;-74
2023/12/21 14:22:51;;;;;;;19.60;3.85;;;;;;;;;;5089962;28;20072;-75
2023/12/21 14:25:18;;;;;;;15.30;2.80;;;;;;;;;;5080510;28;20036;-75
2023/12/21 14:27:45;;;;;;;12.57;1.73;;;;;;;;;;5065014;28;20052;-75
2023/12/21 14:30:11;;;;;;;10.10;1.83;;;;;;;;;;5079961;28;20045;-75